PST,Max TemperatureF,Mean TemperatureF,Min TemperatureF,Max Dew PointF,MeanDew PointF,Min DewpointF,Max Humidity, Mean Humidity, Min Humidity, Max Sea Level PressureIn, Mean Sea Level PressureIn, Min Sea Level PressureIn, Max VisibilityMiles, Mean VisibilityMiles, Min VisibilityMiles, Max Wind SpeedMPH, Mean Wind SpeedMPH, Max Gust SpeedMPH,PrecipitationIn, CloudCover, Events, WindDirDegrees
2013-12-1,56,47,37,44,38,34,92,79,66,30.19,30.00,29.71,10,5,0,23,6,29,0.29,8,Fog-Rain,155
2013-12-2,53,42,31,41,29,21,75,60,45,29.95,29.79,29.64,10,10,6,33,10,48,0.02,7,Rain-Snow,249
2013-12-3,33,26,19,28,16,5,78,57,36,30.27,30.10,29.93,10,8,2,16,6,22,0.02,6,Snow,15
2013-12-4,23,17,11,8,5,2,70,58,45,30.41,30.36,30.29,10,10,10,9,4,10,0.00,1,,184
2013-12-5,21,15,8,9,5,2,80,66,51,30.40,30.36,30.32,10,10,9,7,2,15,0.00,2,,172
2013-12-6,19,12,5,11,5,-3,80,62,43,30.33,30.26,30.16,10,9,3,16,3,22,T,7,Snow,53
2013-12-7,18,10,2,2,-3,-7,69,58,46,30.48,30.32,30.16,10,10,10,15,6,20,0.00,1,,255
2013-12-8,13,7,0,4,-1,-8,83,73,62,30.66,30.56,30.45,10,9,2,7,2,17,T,5,Snow,114
2013-12-9,26,17,8,13,9,2,84,72,60,30.62,30.54,30.44,10,9,2,20,4,23,0.01,7,Snow,123
2013-12-10,32,28,23,19,15,9,74,60,46,30.51,30.48,30.46,10,10,10,17,5,21,0.00,8,,147
2013-12-11,37,32,26,21,17,15,75,58,40,30.49,30.44,30.38,10,10,10,23,12,31,0.00,3,,133
2013-12-12,41,37,32,22,17,14,52,45,37,30.36,30.23,30.15,10,10,9,22,13,28,T,5,,156
2013-12-13,42,36,30,33,30,25,89,71,52,30.49,30.33,30.16,10,9,2,18,2,23,0.01,7,Snow,64
2013-12-14,46,38,30,34,30,27,92,73,53,30.50,30.42,30.33,10,7,0,21,3,25,T,6,Fog-Rain,167
2013-12-15,53,43,33,33,29,25,76,58,39,30.37,30.31,30.26,10,10,10,24,7,31,0.00,2,,144
2013-12-16,39,33,26,32,28,23,92,84,76,30.49,30.42,30.37,10,5,0,7,2,9,0.00,3,Fog,63
2013-12-17,48,38,28,28,26,25,92,67,42,30.38,30.17,30.01,10,10,2,15,4,20,0.00,0,,50
2013-12-18,42,37,31,34,30,26,89,77,64,30.03,29.96,29.88,10,8,3,12,2,16,0.08,6,Rain,226
2013-12-19,35,29,22,27,20,13,75,61,47,30.27,30.15,29.96,10,10,10,17,5,22,0.00,3,,280
2013-12-20,31,27,22,28,24,16,92,78,63,30.17,29.79,29.64,10,5,0,10,4,20,0.20,8,Fog-Rain-Snow,79
2013-12-21,35,33,30,31,29,27,92,87,82,30.14,30.00,29.75,10,3,0,7,1,9,0.02,8,Fog-Rain-Snow,314
2013-12-22,37,35,33,34,31,30,96,89,82,30.33,30.24,30.10,5,2,0,5,0,5,0.01,8,Fog-Rain,122
2013-12-23,50,42,34,37,33,25,100,75,49,30.38,30.20,30.05,10,3,0,31,5,43,0.06,7,Fog-Rain,324
2013-12-24,44,36,27,30,27,24,85,67,49,30.58,30.54,30.41,10,10,10,14,4,20,0.00,0,,104
2013-12-25,39,34,28,26,25,22,85,75,64,30.58,30.51,30.45,10,10,10,14,4,17,0.00,1,,88
2013-12-26,47,37,26,29,26,24,85,65,45,30.45,30.39,30.32,10,10,10,13,3,16,0.00,0,,107
2013-12-27,48,41,33,29,25,21,75,57,38,30.32,30.21,30.09,10,10,10,21,7,31,0.00,2,,142
2013-12-28,40,34,27,30,28,25,85,75,64,30.53,30.45,30.25,10,10,5,10,2,20,0.00,3,,156
2013-12-29,34,29,23,28,25,21,92,84,75,30.52,30.40,30.31,10,6,0,8,2,10,0.00,3,Fog,51
2013-12-30,37,32,27,32,28,24,92,84,75,30.35,30.23,30.13,10,6,0,9,2,10,0.01,3,Fog-Rain,343
2013-12-31,44,37,29,35,32,28,96,81,65,30.39,30.22,30.13,10,6,0,8,2,10,0.00,5,,45